createdAt,value
2023-04-09T00:00:32.437Z,39.31
2023-04-09T00:03:00.449Z,39.64
2023-04-09T00:05:28.360Z,38.13
2023-04-09T00:07:56.290Z,39.12
2023-04-09T00:10:23.870Z,37.87
2023-04-09T00:12:51.430Z,32.29
2023-04-09T00:15:29.902Z,32.85
2023-04-09T00:18:00.067Z,36.65
2023-04-09T00:20:28.150Z,36.30
2023-04-09T00:22:55.809Z,39.84
2023-04-09T00:25:23.747Z,35.39
2023-04-09T00:27:51.390Z,40.43
2023-04-09T00:30:19.745Z,39.56
2023-04-09T00:32:47.322Z,42.48
2023-04-09T00:35:16.351Z,38.85
2023-04-09T00:37:44.090Z,31.33
2023-04-09T00:40:12.230Z,35.64
2023-04-09T00:42:40.044Z,33.15
2023-04-09T00:45:08.730Z,34.15
2023-04-09T00:47:37.910Z,38.19
2023-04-09T00:50:06.500Z,33.07
2023-04-09T00:52:36.353Z,33.01
2023-04-09T00:55:05.757Z,40.65
2023-04-09T00:57:33.399Z,40.67
2023-04-09T01:00:01.659Z,43.57
2023-04-09T01:02:29.735Z,43.56
2023-04-09T01:04:59.470Z,41.72
2023-04-09T01:07:39.659Z,40.59
2023-04-09T01:10:21.582Z,131.17
2023-04-09T01:13:04.114Z,47.93
2023-04-09T01:15:38.429Z,55.86
2023-04-09T01:18:11.062Z,51.03
2023-04-09T01:20:42.396Z,58.17
2023-04-09T01:23:19.002Z,51.18
2023-04-09T01:26:03.526Z,50.59
2023-04-09T01:28:35.161Z,50.51
2023-04-09T01:31:09.694Z,49.01
2023-04-09T01:33:38.590Z,56.05
2023-04-09T01:36:07.353Z,51.47
2023-04-09T01:38:39.448Z,52.47
2023-04-09T01:41:09.348Z,49.47
2023-04-09T01:43:41.225Z,54.52
2023-04-09T01:46:10.754Z,51.26
2023-04-09T01:48:39.316Z,51.72
2023-04-09T01:51:07.111Z,60.36
2023-04-09T01:53:34.902Z,60.73
2023-04-09T01:56:02.720Z,63.27
2023-04-09T01:58:30.269Z,63.49
2023-04-09T02:01:06.936Z,54.86
2023-04-09T02:03:39.937Z,55.87
2023-04-09T02:06:13.829Z,47.93
2023-04-09T02:08:46.540Z,49.21
2023-04-09T02:11:15.849Z,46.86
2023-04-09T02:13:45.621Z,45.49
2023-04-09T02:16:18.088Z,49.20
2023-04-09T02:18:45.709Z,49.49
2023-04-09T02:21:13.310Z,50.90
2023-04-09T02:23:40.907Z,55.82
2023-04-09T02:26:08.453Z,48.07
2023-04-09T02:28:36.045Z,56.59
2023-04-09T02:31:04.170Z,63.09
2023-04-09T02:33:33.534Z,59.82
2023-04-09T02:36:01.186Z,58.75
2023-04-09T02:38:29.231Z,61.78
2023-04-09T02:40:56.989Z,53.77
2023-04-09T02:43:24.645Z,49.98
2023-04-09T02:45:52.371Z,53.72
2023-04-09T02:48:20.105Z,55.75
2023-04-09T02:50:49.145Z,64.41
2023-04-09T02:53:16.793Z,57.27
2023-04-09T02:55:44.353Z,57.72
2023-04-09T02:58:11.948Z,53.01
2023-04-09T03:00:39.582Z,58.63
2023-04-09T03:03:08.483Z,57.86
2023-04-09T03:05:36.360Z,64.36
2023-04-09T03:08:05.573Z,59.12
2023-04-09T03:10:33.210Z,57.56
2023-04-09T03:13:00.965Z,54.13
2023-04-09T03:15:28.624Z,56.54
2023-04-09T03:17:56.326Z,53.76
2023-04-09T03:20:23.996Z,56.75
2023-04-09T03:22:51.880Z,67.10
2023-04-09T03:25:21.352Z,59.29
2023-04-09T03:27:48.990Z,54.49
2023-04-09T03:30:19.062Z,61.95
2023-04-09T03:32:48.565Z,62.22
2023-04-09T03:35:16.314Z,63.41
2023-04-09T03:37:44.117Z,66.91
2023-04-09T03:40:12.934Z,65.07
2023-04-09T03:42:44.026Z,62.11
2023-04-09T03:45:11.689Z,67.30
2023-04-09T03:47:39.481Z,72.28
2023-04-09T03:50:07.936Z,68.34
2023-04-09T03:52:35.644Z,63.47
2023-04-09T03:55:03.766Z,58.21
2023-04-09T03:57:31.537Z,70.93
2023-04-09T04:00:02.892Z,72.59
2023-04-09T04:02:32.994Z,66.82
2023-04-09T04:05:03.891Z,62.27
2023-04-09T04:07:32.818Z,68.32
2023-04-09T04:10:00.593Z,66.87
2023-04-09T04:12:28.236Z,67.34
2023-04-09T04:14:55.849Z,62.53
2023-04-09T04:17:24.914Z,66.13
2023-04-09T04:19:52.578Z,65.85
2023-04-09T04:22:20.326Z,56.04
2023-04-09T04:24:47.969Z,57.53
2023-04-09T04:27:15.614Z,65.45
2023-04-09T04:29:43.242Z,64.30
2023-04-09T04:32:10.908Z,62.95
2023-04-09T04:34:39.924Z,69.51
2023-04-09T04:37:08.623Z,67.74
2023-04-09T04:39:36.302Z,56.01
2023-04-09T04:42:06.409Z,54.75
2023-04-09T04:44:33.983Z,53.14
2023-04-09T04:47:01.611Z,58.53
2023-04-09T04:49:29.479Z,55.35
2023-04-09T04:51:58.746Z,52.91
2023-04-09T04:54:26.694Z,59.62
2023-04-09T04:56:54.355Z,52.93
2023-04-09T04:59:22.044Z,57.32
2023-04-09T05:01:51.490Z,58.98
2023-04-09T05:04:19.034Z,66.19
2023-04-09T05:06:46.737Z,59.69
2023-04-09T05:09:15.829Z,60.11
2023-04-09T05:11:43.605Z,60.45
2023-04-09T05:14:11.357Z,56.32
2023-04-09T05:16:39.099Z,59.19
2023-04-09T05:19:06.902Z,58.83
2023-04-09T05:21:34.865Z,60.94
2023-04-09T05:24:02.816Z,58.97
2023-04-09T05:26:31.934Z,62.34
2023-04-09T05:28:59.628Z,67.30
2023-04-09T05:31:27.406Z,82.54
2023-04-09T05:33:54.960Z,61.63
2023-04-09T05:36:22.677Z,58.45
2023-04-09T05:38:50.665Z,67.93
2023-04-09T05:41:18.918Z,76.86
2023-04-09T05:43:47.928Z,75.44
2023-04-09T05:46:15.654Z,70.97
2023-04-09T05:48:43.290Z,73.68
2023-04-09T05:51:10.936Z,73.51
2023-04-09T05:53:38.572Z,74.45
2023-04-09T05:56:13.710Z,70.96
2023-04-09T05:58:41.582Z,72.39
2023-04-09T06:01:10.651Z,64.84
2023-04-09T06:03:38.375Z,60.33
2023-04-09T06:06:06.220Z,63.21
2023-04-09T06:08:33.930Z,66.12
2023-04-09T06:11:01.754Z,74.94
2023-04-09T06:13:29.437Z,78.30
2023-04-09T06:15:57.088Z,89.12
2023-04-09T06:18:26.207Z,74.54
2023-04-09T06:21:02.005Z,73.74
2023-04-09T06:23:29.716Z,71.21
2023-04-09T06:25:57.366Z,71.80
2023-04-09T06:28:26.048Z,60.61
2023-04-09T06:30:53.781Z,62.10
2023-04-09T06:33:22.053Z,61.76
2023-04-09T06:35:51.115Z,58.30
2023-04-09T06:38:18.835Z,54.99
2023-04-09T06:40:46.510Z,56.19
2023-04-09T06:43:14.187Z,58.77
2023-04-09T06:45:42.115Z,61.80
2023-04-09T06:48:09.650Z,56.00
2023-04-09T06:50:37.548Z,49.37
2023-04-09T06:53:08.096Z,41.44
2023-04-09T06:55:35.803Z,39.71
2023-04-09T06:58:03.942Z,38.15
2023-04-09T07:00:31.668Z,43.04
2023-04-09T07:02:59.934Z,39.42
2023-04-09T07:05:27.847Z,40.54
2023-04-09T07:07:55.528Z,44.38
2023-04-09T07:10:24.524Z,34.14
2023-04-09T07:12:54.480Z,31.24
2023-04-09T07:15:22.051Z,49.13
2023-04-09T07:17:49.776Z,29.86
2023-04-09T07:20:17.379Z,32.91
2023-04-09T07:22:45.081Z,38.89
2023-04-09T07:25:12.813Z,56.60
2023-04-09T07:27:42.277Z,41.40
2023-04-09T07:30:11.305Z,42.40
2023-04-09T07:32:39.144Z,38.18
2023-04-09T07:35:08.566Z,36.89
2023-04-09T07:37:36.239Z,33.69
2023-04-09T07:40:04.984Z,36.28
2023-04-09T07:42:32.729Z,33.27
2023-04-09T07:45:02.782Z,46.01
2023-04-09T07:47:30.590Z,41.53
2023-04-09T07:49:58.208Z,33.75
2023-04-09T07:52:25.770Z,32.85
2023-04-09T07:54:53.422Z,33.52
2023-04-09T07:57:21.081Z,36.71
2023-04-09T07:59:48.747Z,33.05
2023-04-09T08:02:17.940Z,28.85
2023-04-09T08:04:45.780Z,34.33
2023-04-09T08:07:13.558Z,31.88
2023-04-09T08:09:41.224Z,29.79
2023-04-09T08:12:10.351Z,38.32
2023-04-09T08:14:38.108Z,31.99
2023-04-09T08:17:05.825Z,25.49
2023-04-09T08:19:34.955Z,42.09
2023-04-09T08:22:02.618Z,36.98
2023-04-09T08:24:31.407Z,26.92
2023-04-09T08:26:59.069Z,31.22
2023-04-09T08:29:26.996Z,41.46
2023-04-09T08:31:54.817Z,29.73
2023-04-09T08:34:22.534Z,31.80
2023-04-09T08:36:51.769Z,28.63
2023-04-09T08:39:19.502Z,29.30
2023-04-09T08:41:47.636Z,32.08
2023-04-09T08:44:15.211Z,31.14
2023-04-09T08:46:43.368Z,38.51
2023-04-09T08:49:13.984Z,28.40
2023-04-09T08:51:46.529Z,25.72
2023-04-09T08:54:17.340Z,22.34
2023-04-09T08:56:45.485Z,28.47
2023-04-09T08:59:15.555Z,25.04
2023-04-09T09:01:44.696Z,53.94
2023-04-09T09:04:12.684Z,30.79
2023-04-09T09:06:41.606Z,26.98
2023-04-09T09:09:12.236Z,48.34
2023-04-09T09:11:43.753Z,43.56
2023-04-09T09:14:14.683Z,30.42
2023-04-09T09:16:44.588Z,24.63
2023-04-09T09:19:30.805Z,24.71
2023-04-09T09:22:01.074Z,24.27
2023-04-09T09:24:30.744Z,25.87
2023-04-09T09:27:00.624Z,22.98
2023-04-09T09:29:29.650Z,24.34
2023-04-09T09:31:57.308Z,34.97
2023-04-09T09:34:25.171Z,38.05
2023-04-09T09:36:53.113Z,25.32
2023-04-09T09:39:21.070Z,26.12
2023-04-09T09:42:08.380Z,28.62
2023-04-09T09:44:36.086Z,62.26
2023-04-09T09:47:05.921Z,42.93
2023-04-09T09:49:33.861Z,41.29
2023-04-09T09:52:11.357Z,40.32
2023-04-09T09:54:43.967Z,41.33
2023-04-09T09:57:19.016Z,26.09
2023-04-09T09:59:53.548Z,26.07
2023-04-09T10:02:24.309Z,23.83
2023-04-09T10:04:53.113Z,20.25
2023-04-09T10:07:21.727Z,21.69
2023-04-09T10:09:56.694Z,19.41
2023-04-09T10:12:27.089Z,21.28
2023-04-09T10:14:58.987Z,22.02
2023-04-09T10:17:26.773Z,19.77
2023-04-09T10:20:01.731Z,20.52
2023-04-09T10:22:34.577Z,21.14
2023-04-09T10:25:04.181Z,20.52
2023-04-09T10:27:33.205Z,20.60
2023-04-09T10:30:01.925Z,18.84
2023-04-09T10:32:36.589Z,22.33
2023-04-09T10:35:05.005Z,19.73
2023-04-09T10:37:35.667Z,18.68
2023-04-09T10:40:04.571Z,20.18
2023-04-09T10:42:38.952Z,22.73
2023-04-09T10:45:08.869Z,20.63
2023-04-09T10:47:38.805Z,19.75
2023-04-09T10:50:22.409Z,18.33
2023-04-09T10:52:53.444Z,19.97
2023-04-09T10:55:34.020Z,19.23
2023-04-09T10:58:03.535Z,32.35
2023-04-09T11:00:31.300Z,28.00
2023-04-09T11:03:20.936Z,26.86
2023-04-09T11:05:52.599Z,27.99
2023-04-09T11:08:21.673Z,26.18
2023-04-09T11:10:51.970Z,30.07
2023-04-09T11:13:22.343Z,21.83
2023-04-09T11:15:50.407Z,22.23
2023-04-09T11:18:22.638Z,24.91
2023-04-09T11:20:54.792Z,21.65
2023-04-09T11:23:24.034Z,21.74
2023-04-09T11:25:53.214Z,33.70
2023-04-09T11:28:23.928Z,33.74
2023-04-09T11:30:52.642Z,158.50
2023-04-09T11:33:20.705Z,18.92
2023-04-09T11:35:49.179Z,21.57
2023-04-09T11:38:17.659Z,18.80
2023-04-09T11:40:45.508Z,18.83
2023-04-09T11:43:15.057Z,18.98
2023-04-09T11:45:45.134Z,21.00
2023-04-09T11:48:13.599Z,16.99
2023-04-09T11:50:41.503Z,19.53
2023-04-09T11:53:21.087Z,18.21
2023-04-09T11:55:52.589Z,17.92
2023-04-09T11:58:22.895Z,16.00
2023-04-09T12:00:58.739Z,19.03
2023-04-09T12:03:31.315Z,17.70
2023-04-09T12:06:01.331Z,17.47
2023-04-09T12:08:29.096Z,15.04
2023-04-09T12:10:56.882Z,15.84
2023-04-09T12:13:32.977Z,17.69
2023-04-09T12:16:02.271Z,16.62
2023-04-09T12:18:30.377Z,19.10
2023-04-09T12:20:58.036Z,23.50
2023-04-09T12:23:25.674Z,21.26
2023-04-09T12:25:53.418Z,18.17
2023-04-09T12:28:21.227Z,16.75
2023-04-09T12:30:50.917Z,18.12
2023-04-09T12:33:20.294Z,19.08
2023-04-09T12:35:47.940Z,40.84
2023-04-09T12:38:15.888Z,47.95
2023-04-09T12:40:45.639Z,21.23
2023-04-09T12:43:13.350Z,24.49
2023-04-09T12:45:41.035Z,18.55
2023-04-09T12:48:08.763Z,21.38
2023-04-09T12:50:37.897Z,15.23
2023-04-09T12:53:05.883Z,16.73
2023-04-09T12:55:35.142Z,17.51
2023-04-09T12:58:02.840Z,16.79
2023-04-09T13:00:30.593Z,18.42
2023-04-09T13:02:58.340Z,18.75
2023-04-09T13:05:26.101Z,30.50
2023-04-09T13:07:55.361Z,28.90
2023-04-09T13:10:23.055Z,27.12
2023-04-09T13:12:51.040Z,23.23
2023-04-09T13:15:18.780Z,19.51
2023-04-09T13:17:46.541Z,17.53
2023-04-09T13:20:14.712Z,15.91
2023-04-09T13:22:42.395Z,15.93
2023-04-09T13:25:13.268Z,16.29
2023-04-09T13:27:42.468Z,14.89
2023-04-09T13:30:10.578Z,13.92
2023-04-09T13:32:38.469Z,13.16
2023-04-09T13:35:07.373Z,19.42
2023-04-09T13:37:35.220Z,16.57
2023-04-09T13:40:02.888Z,17.89
2023-04-09T13:42:31.963Z,14.14
2023-04-09T13:45:06.970Z,14.41
2023-04-09T13:47:34.759Z,15.25
2023-04-09T13:50:02.951Z,15.64
2023-04-09T13:52:31.718Z,16.15
2023-04-09T13:54:59.399Z,15.55
2023-04-09T13:57:26.980Z,14.97
2023-04-09T13:59:56.083Z,15.09
2023-04-09T14:02:23.879Z,15.50
2023-04-09T14:04:51.793Z,14.95
2023-04-09T14:07:19.438Z,14.05
2023-04-09T14:09:47.079Z,18.92
2023-04-09T14:12:14.899Z,13.78
2023-04-09T14:14:42.557Z,13.40
2023-04-09T14:17:13.310Z,19.42
2023-04-09T14:19:41.026Z,14.39
2023-04-09T14:22:09.019Z,15.01
2023-04-09T14:24:36.938Z,13.81
2023-04-09T14:27:04.711Z,14.83
2023-04-09T14:29:32.325Z,16.43
2023-04-09T14:32:00.036Z,12.51
2023-04-09T14:34:30.581Z,11.96
2023-04-09T14:36:59.025Z,12.17
2023-04-09T14:39:29.027Z,14.80
2023-04-09T14:41:56.703Z,16.13
2023-04-09T14:44:24.759Z,13.72
2023-04-09T14:46:52.556Z,16.44
2023-04-09T14:49:20.726Z,14.88
2023-04-09T14:51:51.085Z,14.09
2023-04-09T14:54:18.932Z,13.43
2023-04-09T14:56:46.580Z,14.18
2023-04-09T14:59:14.478Z,14.71
2023-04-09T15:01:42.538Z,14.04
2023-04-09T15:04:11.468Z,12.58
2023-04-09T15:06:40.369Z,13.55
2023-04-09T15:09:09.784Z,13.89
2023-04-09T15:11:37.566Z,12.75
2023-04-09T15:14:05.297Z,12.98
2023-04-09T15:16:33.198Z,13.15
2023-04-09T15:19:00.859Z,13.22
2023-04-09T15:21:28.490Z,13.48
2023-04-09T15:23:56.168Z,14.49
2023-04-09T15:26:25.482Z,13.54
2023-04-09T15:29:01.583Z,13.82
2023-04-09T15:31:29.293Z,12.57
2023-04-09T15:33:58.000Z,13.63
2023-04-09T15:36:26.239Z,14.01
2023-04-09T15:38:56.271Z,12.58
2023-04-09T15:41:25.449Z,13.36
2023-04-09T15:43:53.384Z,13.22
2023-04-09T15:46:21.057Z,12.62
2023-04-09T15:48:49.220Z,17.62
2023-04-09T15:51:16.896Z,29.88
2023-04-09T15:53:44.563Z,23.32
2023-04-09T15:56:12.595Z,13.38
2023-04-09T15:58:42.010Z,13.44
2023-04-09T16:01:10.351Z,14.01
2023-04-09T16:03:41.580Z,13.77
2023-04-09T16:06:11.316Z,14.68
2023-04-09T16:08:39.592Z,14.01
2023-04-09T16:11:10.127Z,14.30
2023-04-09T16:13:37.811Z,13.29
2023-04-09T16:16:07.471Z,13.99
2023-04-09T16:18:35.604Z,12.11
2023-04-09T16:21:03.590Z,13.62
2023-04-09T16:23:31.312Z,41.43
2023-04-09T16:25:59.269Z,13.02
2023-04-09T16:28:26.977Z,14.43
2023-04-09T16:30:55.275Z,152.26
2023-04-09T16:33:24.302Z,13.41
2023-04-09T16:35:52.055Z,17.58
2023-04-09T16:38:19.664Z,24.81
2023-04-09T16:40:47.329Z,15.23
2023-04-09T16:43:16.456Z,16.81
2023-04-09T16:45:44.297Z,16.43
2023-04-09T16:48:12.312Z,20.84
2023-04-09T16:50:41.892Z,27.72
2023-04-09T16:53:11.933Z,28.03
2023-04-09T16:55:39.518Z,32.39
2023-04-09T16:58:07.179Z,37.49
2023-04-09T17:00:35.083Z,23.52
2023-04-09T17:03:03.048Z,44.60
2023-04-09T17:05:30.883Z,43.50
2023-04-09T17:07:59.885Z,22.82
2023-04-09T17:10:27.567Z,43.96
2023-04-09T17:12:55.222Z,21.37
2023-04-09T17:15:23.161Z,26.00
2023-04-09T17:17:51.203Z,62.57
2023-04-09T17:20:19.258Z,49.61
2023-04-09T17:22:47.068Z,36.66
2023-04-09T17:25:16.608Z,26.58
2023-04-09T17:27:44.357Z,24.27
2023-04-09T17:30:12.390Z,25.43
2023-04-09T17:32:40.536Z,27.46
2023-04-09T17:35:09.008Z,25.09
2023-04-09T17:37:37.149Z,28.67
2023-04-09T17:40:06.102Z,23.80
2023-04-09T17:42:35.252Z,24.41
2023-04-09T17:45:03.986Z,30.75
2023-04-09T17:47:31.962Z,21.18
2023-04-09T17:50:01.317Z,51.38
2023-04-09T17:52:28.903Z,26.30
2023-04-09T17:54:57.645Z,22.93
2023-04-09T17:57:25.329Z,22.43
2023-04-09T17:59:54.419Z,25.51
2023-04-09T18:02:22.257Z,20.17
2023-04-09T18:04:50.286Z,20.44
2023-04-09T18:07:18.104Z,18.87
2023-04-09T18:09:46.138Z,20.80
2023-04-09T18:12:13.861Z,15.12
2023-04-09T18:14:41.596Z,12.42
2023-04-09T18:17:10.650Z,10.87
2023-04-09T18:19:38.287Z,12.67
2023-04-09T18:22:05.928Z,13.10
2023-04-09T18:24:33.609Z,13.39
2023-04-09T18:27:02.638Z,10.58
2023-04-09T18:29:32.466Z,9.55
2023-04-09T18:32:00.167Z,11.73
2023-04-09T18:34:29.141Z,12.71
2023-04-09T18:36:56.700Z,9.97
2023-04-09T18:39:24.278Z,9.30
2023-04-09T18:41:51.928Z,11.10
2023-04-09T18:44:19.827Z,12.51
2023-04-09T18:46:50.761Z,12.68
2023-04-09T18:49:18.515Z,11.44
2023-04-09T18:51:47.431Z,9.73
2023-04-09T18:54:14.978Z,12.62
2023-04-09T18:56:44.728Z,12.72
2023-04-09T18:59:14.107Z,15.86
2023-04-09T19:01:42.131Z,20.68
2023-04-09T19:04:10.473Z,11.96
2023-04-09T19:06:38.312Z,11.75
2023-04-09T19:09:07.341Z,14.42
2023-04-09T19:11:34.907Z,11.97
2023-04-09T19:14:03.434Z,16.07
2023-04-09T19:16:31.173Z,14.06
2023-04-09T19:18:58.861Z,15.33
2023-04-09T19:21:26.598Z,14.37
2023-04-09T19:23:54.277Z,13.78
2023-04-09T19:26:23.286Z,15.77
2023-04-09T19:28:50.983Z,11.20
2023-04-09T19:31:18.671Z,11.07
2023-04-09T19:33:46.373Z,10.53
2023-04-09T19:36:13.997Z,9.33
2023-04-09T19:38:41.719Z,10.11
2023-04-09T19:41:09.324Z,13.50
2023-04-09T19:43:40.923Z,11.89
2023-04-09T19:46:09.310Z,12.48
2023-04-09T19:48:37.223Z,12.03
2023-04-09T19:51:05.306Z,15.34
2023-04-09T19:53:32.931Z,14.60
2023-04-09T19:56:00.580Z,13.52
2023-04-09T19:58:28.268Z,12.31
2023-04-09T20:00:57.258Z,11.61
2023-04-09T20:03:25.128Z,11.49
2023-04-09T20:05:52.906Z,14.02
2023-04-09T20:08:20.488Z,13.98
2023-04-09T20:10:48.037Z,13.60
2023-04-09T20:13:15.591Z,14.94
2023-04-09T20:15:43.246Z,12.86
2023-04-09T20:18:12.226Z,14.39
2023-04-09T20:20:39.974Z,13.93
2023-04-09T20:23:07.637Z,16.05
2023-04-09T20:25:35.300Z,14.12
2023-04-09T20:28:03.329Z,13.83
2023-04-09T20:30:31.028Z,16.08
2023-04-09T20:32:58.753Z,16.32
2023-04-09T20:35:27.812Z,18.53
2023-04-09T20:37:55.473Z,18.22
2023-04-09T20:40:24.910Z,35.43
2023-04-09T20:42:52.597Z,28.69
2023-04-09T20:45:20.253Z,24.39
2023-04-09T20:47:49.736Z,32.97
2023-04-09T20:50:17.451Z,20.88
2023-04-09T20:52:46.456Z,23.53
2023-04-09T20:55:14.162Z,33.41
2023-04-09T20:57:41.865Z,52.57
2023-04-09T21:00:10.298Z,46.82
2023-04-09T21:02:38.666Z,43.42
2023-04-09T21:05:19.539Z,19.82
2023-04-09T21:07:52.023Z,19.98
2023-04-09T21:10:20.054Z,29.75
2023-04-09T21:12:47.789Z,50.11
2023-04-09T21:15:15.699Z,66.99
2023-04-09T21:17:43.377Z,77.51
2023-04-09T21:20:12.026Z,78.07
2023-04-09T21:22:39.603Z,69.23
2023-04-09T21:25:09.501Z,53.28
2023-04-09T21:27:37.282Z,21.29
2023-04-09T21:30:07.843Z,22.78
2023-04-09T21:32:35.630Z,19.79
2023-04-09T21:35:03.860Z,20.09
2023-04-09T21:37:31.530Z,20.37
2023-04-09T21:39:59.171Z,20.24
2023-04-09T21:42:28.185Z,29.86
2023-04-09T21:44:55.845Z,33.20
2023-04-09T21:47:23.662Z,17.39
2023-04-09T21:49:51.302Z,21.12
2023-04-09T21:52:21.527Z,25.15
2023-04-09T21:54:49.168Z,22.94
2023-04-09T21:57:16.968Z,18.59
2023-04-09T21:59:45.964Z,21.32
2023-04-09T22:02:13.715Z,20.03
2023-04-09T22:04:41.723Z,17.58
2023-04-09T22:07:10.725Z,21.22
2023-04-09T22:09:38.514Z,25.10
2023-04-09T22:12:06.169Z,26.41
2023-04-09T22:14:34.099Z,22.84
2023-04-09T22:17:03.572Z,19.71
2023-04-09T22:19:32.907Z,20.30
2023-04-09T22:22:00.871Z,21.29
2023-04-09T22:24:28.542Z,20.98
2023-04-09T22:26:56.428Z,21.91
2023-04-09T22:29:24.461Z,20.40
2023-04-09T22:31:52.223Z,19.60
2023-04-09T22:34:22.194Z,21.53
2023-04-09T22:36:50.409Z,47.38
2023-04-09T22:39:18.037Z,21.07
2023-04-09T22:41:46.046Z,22.68
2023-04-09T22:44:13.710Z,20.61
2023-04-09T22:46:41.561Z,22.96
2023-04-09T22:49:10.772Z,22.04
2023-04-09T22:51:41.671Z,21.87
2023-04-09T22:54:09.607Z,24.39
2023-04-09T22:56:37.444Z,16.51
2023-04-09T22:59:05.540Z,19.72
2023-04-09T23:01:33.565Z,16.50
2023-04-09T23:04:01.296Z,27.16
2023-04-09T23:06:28.976Z,20.11
2023-04-09T23:08:57.976Z,22.70
2023-04-09T23:11:25.903Z,37.62
2023-04-09T23:13:53.473Z,15.86
2023-04-09T23:16:21.067Z,17.79
2023-04-09T23:18:48.775Z,22.19
2023-04-09T23:21:16.729Z,18.34
2023-04-09T23:23:45.703Z,16.58
2023-04-09T23:26:15.011Z,17.91
2023-04-09T23:28:42.711Z,18.32
2023-04-09T23:31:10.465Z,20.51
2023-04-09T23:33:38.246Z,23.68
2023-04-09T23:36:06.563Z,23.01
2023-04-09T23:38:34.358Z,25.53
2023-04-09T23:41:02.411Z,133.72
2023-04-09T23:43:31.544Z,125.79
2023-04-09T23:45:59.182Z,133.53
2023-04-09T23:48:26.845Z,125.05
2023-04-09T23:50:54.499Z,150.64
2023-04-09T23:53:22.113Z,137.18
2023-04-09T23:55:50.153Z,40.40
2023-04-09T23:58:17.792Z,26.27
